sensor_id;sensor_type;location;lat;lon;timestamp;temperature;humidity
13205;DHT22;6667;52.634;9.226;2023-06-04T00:00:46;11.00;99.90
13205;DHT22;6667;52.634;9.226;2023-06-04T00:03:13;11.00;99.90
13205;DHT22;6667;52.634;9.226;2023-06-04T00:05:42;10.90;99.90
13205;DHT22;6667;52.634;9.226;2023-06-04T00:08:09;10.90;99.90
13205;DHT22;6667;52.634;9.226;2023-06-04T00:10:43;10.80;99.90
13205;DHT22;6667;52.634;9.226;2023-06-04T00:13:11;10.80;99.90
13205;DHT22;6667;52.634;9.226;2023-06-04T00:15:41;10.70;99.90
13205;DHT22;6667;52.634;9.226;2023-06-04T00:18:08;10.70;99.90
13205;DHT22;6667;52.634;9.226;2023-06-04T00:20:36;10.70;99.90
13205;DHT22;6667;52.634;9.226;2023-06-04T00:23:04;10.70;99.90
13205;DHT22;6667;52.634;9.226;2023-06-04T00:25:33;10.60;99.90
13205;DHT22;6667;52.634;9.226;2023-06-04T00:28:03;10.50;99.90
13205;DHT22;6667;52.634;9.226;2023-06-04T00:30:30;10.40;99.90
13205;DHT22;6667;52.634;9.226;2023-06-04T00:32:57;10.40;99.90
13205;DHT22;6667;52.634;9.226;2023-06-04T00:35:24;10.40;99.90
13205;DHT22;6667;52.634;9.226;2023-06-04T00:37:51;10.40;99.90
13205;DHT22;6667;52.634;9.226;2023-06-04T00:40:19;10.20;99.90
13205;DHT22;6667;52.634;9.226;2023-06-04T00:42:47;10.20;99.90
13205;DHT22;6667;52.634;9.226;2023-06-04T00:47:57;10.20;99.90
13205;DHT22;6667;52.634;9.226;2023-06-04T00:50:24;10.30;99.90
13205;DHT22;6667;52.634;9.226;2023-06-04T00:52:52;10.20;99.90
13205;DHT22;6667;52.634;9.226;2023-06-04T00:55:20;10.20;99.90
13205;DHT22;6667;52.634;9.226;2023-06-04T00:57:47;10.20;99.90
13205;DHT22;6667;52.634;9.226;2023-06-04T01:00:20;10.10;99.90
13205;DHT22;6667;52.634;9.226;2023-06-04T01:03:03;10.10;99.90
13205;DHT22;6667;52.634;9.226;2023-06-04T01:05:38;10.00;99.90
13205;DHT22;6667;52.634;9.226;2023-06-04T01:08:08;10.00;99.90
13205;DHT22;6667;52.634;9.226;2023-06-04T01:13:22;9.90;99.90
13205;DHT22;6667;52.634;9.226;2023-06-04T01:15:49;10.00;99.90
13205;DHT22;6667;52.634;9.226;2023-06-04T01:18:19;9.90;99.90
13205;DHT22;6667;52.634;9.226;2023-06-04T01:21:08;9.90;99.90
13205;DHT22;6667;52.634;9.226;2023-06-04T01:23:45;9.80;99.90
13205;DHT22;6667;52.634;9.226;2023-06-04T01:26:14;9.70;99.90
13205;DHT22;6667;52.634;9.226;2023-06-04T01:28:46;9.70;99.90
13205;DHT22;6667;52.634;9.226;2023-06-04T01:31:13;9.60;99.90
13205;DHT22;6667;52.634;9.226;2023-06-04T01:33:41;9.60;99.90
13205;DHT22;6667;52.634;9.226;2023-06-04T01:36:08;9.60;99.90
13205;DHT22;6667;52.634;9.226;2023-06-04T01:38:38;9.60;99.90
13205;DHT22;6667;52.634;9.226;2023-06-04T01:41:06;9.50;99.90
13205;DHT22;6667;52.634;9.226;2023-06-04T01:43:35;9.40;99.90
13205;DHT22;6667;52.634;9.226;2023-06-04T01:46:03;9.20;99.90
13205;DHT22;6667;52.634;9.226;2023-06-04T01:48:30;9.20;99.90
13205;DHT22;6667;52.634;9.226;2023-06-04T01:50:57;9.30;99.90
13205;DHT22;6667;52.634;9.226;2023-06-04T01:53:31;9.20;99.90
13205;DHT22;6667;52.634;9.226;2023-06-04T01:55:59;9.20;99.90
13205;DHT22;6667;52.634;9.226;2023-06-04T01:58:26;9.10;99.90
13205;DHT22;6667;52.634;9.226;2023-06-04T02:00:56;9.20;99.90
13205;DHT22;6667;52.634;9.226;2023-06-04T02:03:26;9.10;99.90
13205;DHT22;6667;52.634;9.226;2023-06-04T02:06:12;9.00;99.90
13205;DHT22;6667;52.634;9.226;2023-06-04T02:08:39;9.00;99.90
13205;DHT22;6667;52.634;9.226;2023-06-04T02:11:08;9.10;99.90
13205;DHT22;6667;52.634;9.226;2023-06-04T02:13:35;9.00;99.90
13205;DHT22;6667;52.634;9.226;2023-06-04T02:16:04;9.10;99.90
13205;DHT22;6667;52.634;9.226;2023-06-04T02:18:31;9.10;99.90
13205;DHT22;6667;52.634;9.226;2023-06-04T02:20:59;9.00;99.90
13205;DHT22;6667;52.634;9.226;2023-06-04T02:23:27;8.90;99.90
13205;DHT22;6667;52.634;9.226;2023-06-04T02:25:54;8.80;99.90
13205;DHT22;6667;52.634;9.226;2023-06-04T02:28:21;8.80;99.90
13205;DHT22;6667;52.634;9.226;2023-06-04T02:30:51;8.70;99.90
13205;DHT22;6667;52.634;9.226;2023-06-04T02:33:20;8.60;99.90
13205;DHT22;6667;52.634;9.226;2023-06-04T02:35:47;8.60;99.90
13205;DHT22;6667;52.634;9.226;2023-06-04T02:38:14;8.60;99.90
13205;DHT22;6667;52.634;9.226;2023-06-04T02:40:42;8.60;99.90
13205;DHT22;6667;52.634;9.226;2023-06-04T02:43:10;8.60;99.90
13205;DHT22;6667;52.634;9.226;2023-06-04T02:45:37;8.70;99.90
13205;DHT22;6667;52.634;9.226;2023-06-04T02:48:04;8.70;99.90
13205;DHT22;6667;52.634;9.226;2023-06-04T02:50:33;8.60;99.90
13205;DHT22;6667;52.634;9.226;2023-06-04T02:53:00;8.60;99.90
13205;DHT22;6667;52.634;9.226;2023-06-04T02:55:31;8.60;99.90
13205;DHT22;6667;52.634;9.226;2023-06-04T02:57:58;8.60;99.90
13205;DHT22;6667;52.634;9.226;2023-06-04T03:00:26;8.40;99.90
13205;DHT22;6667;52.634;9.226;2023-06-04T03:02:53;8.30;99.90
13205;DHT22;6667;52.634;9.226;2023-06-04T03:05:26;8.30;99.90
13205;DHT22;6667;52.634;9.226;2023-06-04T03:07:57;8.30;99.90
13205;DHT22;6667;52.634;9.226;2023-06-04T03:10:25;8.20;99.90
13205;DHT22;6667;52.634;9.226;2023-06-04T03:12:52;8.20;99.90
13205;DHT22;6667;52.634;9.226;2023-06-04T03:15:23;8.20;99.90
13205;DHT22;6667;52.634;9.226;2023-06-04T03:17:50;8.20;99.90
13205;DHT22;6667;52.634;9.226;2023-06-04T03:20:18;8.20;99.90
13205;DHT22;6667;52.634;9.226;2023-06-04T03:22:45;8.10;99.90
13205;DHT22;6667;52.634;9.226;2023-06-04T03:25:13;8.10;99.90
13205;DHT22;6667;52.634;9.226;2023-06-04T03:27:43;8.10;99.90
13205;DHT22;6667;52.634;9.226;2023-06-04T03:30:11;8.20;99.90
13205;DHT22;6667;52.634;9.226;2023-06-04T03:32:41;8.20;99.90
13205;DHT22;6667;52.634;9.226;2023-06-04T03:35:11;8.20;99.90
13205;DHT22;6667;52.634;9.226;2023-06-04T03:37:38;8.30;99.90
13205;DHT22;6667;52.634;9.226;2023-06-04T03:40:08;8.20;99.90
13205;DHT22;6667;52.634;9.226;2023-06-04T03:42:36;8.20;99.90
13205;DHT22;6667;52.634;9.226;2023-06-04T03:45:04;8.20;99.90
13205;DHT22;6667;52.634;9.226;2023-06-04T03:47:32;8.30;99.90
13205;DHT22;6667;52.634;9.226;2023-06-04T03:49:59;8.30;99.90
13205;DHT22;6667;52.634;9.226;2023-06-04T03:52:26;8.30;99.90
13205;DHT22;6667;52.634;9.226;2023-06-04T03:54:57;8.40;99.90
13205;DHT22;6667;52.634;9.226;2023-06-04T03:57:24;8.40;99.90
13205;DHT22;6667;52.634;9.226;2023-06-04T03:59:52;8.30;99.90
13205;DHT22;6667;52.634;9.226;2023-06-04T04:02:22;8.30;99.90
13205;DHT22;6667;52.634;9.226;2023-06-04T04:04:58;8.30;99.90
13205;DHT22;6667;52.634;9.226;2023-06-04T04:07:31;8.10;99.90
13205;DHT22;6667;52.634;9.226;2023-06-04T04:09:59;8.10;99.90
13205;DHT22;6667;52.634;9.226;2023-06-04T04:12:29;8.10;99.90
13205;DHT22;6667;52.634;9.226;2023-06-04T04:14:57;8.10;99.90
13205;DHT22;6667;52.634;9.226;2023-06-04T04:17:25;8.30;99.90
13205;DHT22;6667;52.634;9.226;2023-06-04T04:19:52;8.30;99.90
13205;DHT22;6667;52.634;9.226;2023-06-04T04:24:57;8.40;99.90
13205;DHT22;6667;52.634;9.226;2023-06-04T04:27:27;8.40;99.90
13205;DHT22;6667;52.634;9.226;2023-06-04T04:29:57;8.40;99.90
13205;DHT22;6667;52.634;9.226;2023-06-04T04:32:26;8.50;99.90
13205;DHT22;6667;52.634;9.226;2023-06-04T04:34:54;8.60;99.90
13205;DHT22;6667;52.634;9.226;2023-06-04T04:37:21;8.80;99.90
13205;DHT22;6667;52.634;9.226;2023-06-04T04:39:49;9.00;1.00
13205;DHT22;6667;52.634;9.226;2023-06-04T04:42:18;9.10;1.00
13205;DHT22;6667;52.634;9.226;2023-06-04T04:45:02;9.20;99.90
13205;DHT22;6667;52.634;9.226;2023-06-04T04:47:29;9.40;99.90
13205;DHT22;6667;52.634;9.226;2023-06-04T04:49:57;9.60;99.90
13205;DHT22;6667;52.634;9.226;2023-06-04T04:52:24;9.70;99.90
13205;DHT22;6667;52.634;9.226;2023-06-04T04:54:51;9.90;99.90
13205;DHT22;6667;52.634;9.226;2023-06-04T04:57:21;10.10;99.90
13205;DHT22;6667;52.634;9.226;2023-06-04T04:59:50;10.20;99.90
13205;DHT22;6667;52.634;9.226;2023-06-04T05:02:19;10.30;99.90
13205;DHT22;6667;52.634;9.226;2023-06-04T05:04:46;10.50;99.90
13205;DHT22;6667;52.634;9.226;2023-06-04T05:07:13;10.60;99.90
13205;DHT22;6667;52.634;9.226;2023-06-04T05:09:44;10.80;99.90
13205;DHT22;6667;52.634;9.226;2023-06-04T05:12:12;11.10;99.90
13205;DHT22;6667;52.634;9.226;2023-06-04T05:14:39;11.20;99.90
13205;DHT22;6667;52.634;9.226;2023-06-04T05:17:07;11.40;99.90
13205;DHT22;6667;52.634;9.226;2023-06-04T05:19:38;11.60;99.90
13205;DHT22;6667;52.634;9.226;2023-06-04T05:22:05;11.70;99.90
13205;DHT22;6667;52.634;9.226;2023-06-04T05:24:34;12.00;99.90
13205;DHT22;6667;52.634;9.226;2023-06-04T05:27:01;12.20;99.90
13205;DHT22;6667;52.634;9.226;2023-06-04T05:29:29;12.40;99.90
13205;DHT22;6667;52.634;9.226;2023-06-04T05:31:58;12.80;99.90
13205;DHT22;6667;52.634;9.226;2023-06-04T05:34:45;13.10;99.90
13205;DHT22;6667;52.634;9.226;2023-06-04T05:39:55;13.70;99.90
13205;DHT22;6667;52.634;9.226;2023-06-04T05:42:24;13.90;99.90
13205;DHT22;6667;52.634;9.226;2023-06-04T05:44:51;13.90;99.90
13205;DHT22;6667;52.634;9.226;2023-06-04T05:47:32;14.20;99.90
13205;DHT22;6667;52.634;9.226;2023-06-04T05:50:02;14.60;99.90
13205;DHT22;6667;52.634;9.226;2023-06-04T05:52:29;15.00;99.90
13205;DHT22;6667;52.634;9.226;2023-06-04T05:54:56;15.30;99.90
13205;DHT22;6667;52.634;9.226;2023-06-04T05:57:24;15.60;99.90
13205;DHT22;6667;52.634;9.226;2023-06-04T05:59:52;16.00;99.90
13205;DHT22;6667;52.634;9.226;2023-06-04T06:02:19;16.40;99.90
13205;DHT22;6667;52.634;9.226;2023-06-04T06:04:47;16.80;99.90
13205;DHT22;6667;52.634;9.226;2023-06-04T06:07:15;17.20;99.90
13205;DHT22;6667;52.634;9.226;2023-06-04T06:09:45;17.60;99.90
13205;DHT22;6667;52.634;9.226;2023-06-04T06:12:13;17.80;99.90
13205;DHT22;6667;52.634;9.226;2023-06-04T06:14:40;17.90;99.90
13205;DHT22;6667;52.634;9.226;2023-06-04T06:17:17;18.20;99.90
13205;DHT22;6667;52.634;9.226;2023-06-04T06:19:47;18.40;99.90
13205;DHT22;6667;52.634;9.226;2023-06-04T06:22:16;19.00;99.90
13205;DHT22;6667;52.634;9.226;2023-06-04T06:24:48;19.20;99.90
13205;DHT22;6667;52.634;9.226;2023-06-04T06:27:19;19.70;99.90
13205;DHT22;6667;52.634;9.226;2023-06-04T06:29:52;19.80;99.90
13205;DHT22;6667;52.634;9.226;2023-06-04T06:32:20;20.20;99.90
13205;DHT22;6667;52.634;9.226;2023-06-04T06:34:47;20.30;99.90
13205;DHT22;6667;52.634;9.226;2023-06-04T06:37:19;20.40;99.90
13205;DHT22;6667;52.634;9.226;2023-06-04T06:39:46;20.80;99.90
13205;DHT22;6667;52.634;9.226;2023-06-04T06:42:13;21.00;99.90
13205;DHT22;6667;52.634;9.226;2023-06-04T06:44:43;21.40;99.90
13205;DHT22;6667;52.634;9.226;2023-06-04T06:47:25;21.50;99.90
13205;DHT22;6667;52.634;9.226;2023-06-04T06:49:53;22.00;99.90
13205;DHT22;6667;52.634;9.226;2023-06-04T06:52:22;22.50;99.90
13205;DHT22;6667;52.634;9.226;2023-06-04T06:54:51;23.00;99.90
13205;DHT22;6667;52.634;9.226;2023-06-04T06:57:27;23.20;99.90
13205;DHT22;6667;52.634;9.226;2023-06-04T06:59:56;23.10;99.90
13205;DHT22;6667;52.634;9.226;2023-06-04T07:02:24;23.40;99.90
13205;DHT22;6667;52.634;9.226;2023-06-04T07:04:54;23.70;99.90
13205;DHT22;6667;52.634;9.226;2023-06-04T07:07:37;24.10;99.90
13205;DHT22;6667;52.634;9.226;2023-06-04T07:10:05;24.00;99.90
13205;DHT22;6667;52.634;9.226;2023-06-04T07:12:33;24.10;99.90
13205;DHT22;6667;52.634;9.226;2023-06-04T07:15:00;24.60;99.90
13205;DHT22;6667;52.634;9.226;2023-06-04T07:17:28;25.20;99.90
13205;DHT22;6667;52.634;9.226;2023-06-04T07:20:01;24.70;99.90
13205;DHT22;6667;52.634;9.226;2023-06-04T07:22:32;25.20;99.90
13205;DHT22;6667;52.634;9.226;2023-06-04T07:25:01;25.70;99.90
13205;DHT22;6667;52.634;9.226;2023-06-04T07:27:48;25.30;99.90
13205;DHT22;6667;52.634;9.226;2023-06-04T07:30:17;25.30;99.90
13205;DHT22;6667;52.634;9.226;2023-06-04T07:32:47;25.50;99.90
13205;DHT22;6667;52.634;9.226;2023-06-04T07:35:15;26.30;99.90
13205;DHT22;6667;52.634;9.226;2023-06-04T07:37:45;26.40;99.90
13205;DHT22;6667;52.634;9.226;2023-06-04T07:40:18;26.00;99.90
13205;DHT22;6667;52.634;9.226;2023-06-04T07:43:17;26.30;99.90
13205;DHT22;6667;52.634;9.226;2023-06-04T07:45:54;26.60;99.90
13205;DHT22;6667;52.634;9.226;2023-06-04T07:48:21;26.00;99.90
13205;DHT22;6667;52.634;9.226;2023-06-04T07:51:08;26.10;99.90
13205;DHT22;6667;52.634;9.226;2023-06-04T07:53:37;26.70;99.90
13205;DHT22;6667;52.634;9.226;2023-06-04T07:56:06;28.00;99.90
13205;DHT22;6667;52.634;9.226;2023-06-04T07:58:37;27.60;99.90
13205;DHT22;6667;52.634;9.226;2023-06-04T08:01:10;27.30;99.90
13205;DHT22;6667;52.634;9.226;2023-06-04T08:04:05;27.40;99.90
13205;DHT22;6667;52.634;9.226;2023-06-04T08:06:36;27.40;99.90
13205;DHT22;6667;52.634;9.226;2023-06-04T08:09:18;27.50;99.90
13205;DHT22;6667;52.634;9.226;2023-06-04T08:12:02;27.50;99.90
13205;DHT22;6667;52.634;9.226;2023-06-04T08:14:30;27.90;99.90
13205;DHT22;6667;52.634;9.226;2023-06-04T08:16:58;28.40;99.90
13205;DHT22;6667;52.634;9.226;2023-06-04T08:19:29;29.10;99.90
13205;DHT22;6667;52.634;9.226;2023-06-04T08:21:56;29.50;99.90
13205;DHT22;6667;52.634;9.226;2023-06-04T08:24:26;29.60;99.90
13205;DHT22;6667;52.634;9.226;2023-06-04T08:26:57;28.30;99.90
13205;DHT22;6667;52.634;9.226;2023-06-04T08:29:26;27.90;99.90
13205;DHT22;6667;52.634;9.226;2023-06-04T08:31:56;28.80;99.90
13205;DHT22;6667;52.634;9.226;2023-06-04T08:34:24;28.70;99.90
13205;DHT22;6667;52.634;9.226;2023-06-04T08:36:52;28.70;99.90
13205;DHT22;6667;52.634;9.226;2023-06-04T08:39:22;28.80;99.90
13205;DHT22;6667;52.634;9.226;2023-06-04T08:41:52;29.10;99.90
13205;DHT22;6667;52.634;9.226;2023-06-04T08:44:22;29.40;99.90
13205;DHT22;6667;52.634;9.226;2023-06-04T08:46:52;29.20;99.90
13205;DHT22;6667;52.634;9.226;2023-06-04T08:49:22;28.80;99.90
13205;DHT22;6667;52.634;9.226;2023-06-04T08:51:53;29.00;99.90
13205;DHT22;6667;52.634;9.226;2023-06-04T08:54:21;29.10;99.90
13205;DHT22;6667;52.634;9.226;2023-06-04T08:57:08;29.20;99.90
13205;DHT22;6667;52.634;9.226;2023-06-04T08:59:37;30.10;99.90
13205;DHT22;6667;52.634;9.226;2023-06-04T09:02:07;29.60;99.90
13205;DHT22;6667;52.634;9.226;2023-06-04T09:04:35;29.50;99.90
13205;DHT22;6667;52.634;9.226;2023-06-04T09:07:03;29.50;99.90
13205;DHT22;6667;52.634;9.226;2023-06-04T09:09:31;30.00;99.90
13205;DHT22;6667;52.634;9.226;2023-06-04T09:12:02;30.40;99.90
13205;DHT22;6667;52.634;9.226;2023-06-04T09:14:30;30.30;99.90
13205;DHT22;6667;52.634;9.226;2023-06-04T09:16:59;30.10;99.90
13205;DHT22;6667;52.634;9.226;2023-06-04T09:19:28;30.00;99.90
13205;DHT22;6667;52.634;9.226;2023-06-04T09:21:57;29.40;99.90
13205;DHT22;6667;52.634;9.226;2023-06-04T09:24:39;30.10;99.90
13205;DHT22;6667;52.634;9.226;2023-06-04T09:27:11;31.00;99.90
13205;DHT22;6667;52.634;9.226;2023-06-04T09:32:52;31.30;99.90
13205;DHT22;6667;52.634;9.226;2023-06-04T09:35:21;31.70;99.90
13205;DHT22;6667;52.634;9.226;2023-06-04T09:37:53;32.10;99.90
13205;DHT22;6667;52.634;9.226;2023-06-04T09:40:46;31.60;99.90
13205;DHT22;6667;52.634;9.226;2023-06-04T09:43:21;30.70;99.90
13205;DHT22;6667;52.634;9.226;2023-06-04T09:45:50;31.50;99.90
13205;DHT22;6667;52.634;9.226;2023-06-04T09:51:35;32.30;99.90
13205;DHT22;6667;52.634;9.226;2023-06-04T09:54:03;32.20;99.90
13205;DHT22;6667;52.634;9.226;2023-06-04T09:56:39;30.90;99.90
13205;DHT22;6667;52.634;9.226;2023-06-04T09:59:09;30.20;99.90
13205;DHT22;6667;52.634;9.226;2023-06-04T10:01:39;29.90;99.90
13205;DHT22;6667;52.634;9.226;2023-06-04T10:04:08;30.20;99.90
13205;DHT22;6667;52.634;9.226;2023-06-04T10:06:40;29.80;99.90
13205;DHT22;6667;52.634;9.226;2023-06-04T10:09:08;30.70;99.90
13205;DHT22;6667;52.634;9.226;2023-06-04T10:11:39;30.90;99.90
13205;DHT22;6667;52.634;9.226;2023-06-04T10:14:17;30.00;99.90
13205;DHT22;6667;52.634;9.226;2023-06-04T10:16:46;30.50;99.90
13205;DHT22;6667;52.634;9.226;2023-06-04T10:19:15;30.80;99.90
13205;DHT22;6667;52.634;9.226;2023-06-04T10:21:45;31.70;99.90
13205;DHT22;6667;52.634;9.226;2023-06-04T10:24:14;30.40;99.90
13205;DHT22;6667;52.634;9.226;2023-06-04T10:26:47;30.90;99.90
13205;DHT22;6667;52.634;9.226;2023-06-04T10:29:18;31.00;99.90
13205;DHT22;6667;52.634;9.226;2023-06-04T10:31:46;29.80;99.90
13205;DHT22;6667;52.634;9.226;2023-06-04T10:34:15;29.80;99.90
13205;DHT22;6667;52.634;9.226;2023-06-04T10:36:45;29.70;99.90
13205;DHT22;6667;52.634;9.226;2023-06-04T10:39:13;30.70;99.90
13205;DHT22;6667;52.634;9.226;2023-06-04T10:41:41;30.80;99.90
13205;DHT22;6667;52.634;9.226;2023-06-04T10:44:09;30.60;99.90
13205;DHT22;6667;52.634;9.226;2023-06-04T10:46:40;30.10;99.90
13205;DHT22;6667;52.634;9.226;2023-06-04T10:49:10;30.40;99.90
13205;DHT22;6667;52.634;9.226;2023-06-04T10:51:38;31.10;99.90
13205;DHT22;6667;52.634;9.226;2023-06-04T10:54:08;29.80;99.90
13205;DHT22;6667;52.634;9.226;2023-06-04T10:56:35;28.50;99.90
13205;DHT22;6667;52.634;9.226;2023-06-04T10:59:13;29.00;99.90
13205;DHT22;6667;52.634;9.226;2023-06-04T11:01:41;30.50;99.90
13205;DHT22;6667;52.634;9.226;2023-06-04T11:04:18;30.90;99.90
13205;DHT22;6667;52.634;9.226;2023-06-04T11:06:46;30.90;99.90
13205;DHT22;6667;52.634;9.226;2023-06-04T11:09:14;30.70;99.90
13205;DHT22;6667;52.634;9.226;2023-06-04T11:11:44;31.50;99.90
13205;DHT22;6667;52.634;9.226;2023-06-04T11:14:11;30.80;99.90
13205;DHT22;6667;52.634;9.226;2023-06-04T11:16:39;30.70;99.90
13205;DHT22;6667;52.634;9.226;2023-06-04T11:19:06;31.10;99.90
13205;DHT22;6667;52.634;9.226;2023-06-04T11:21:34;31.30;99.90
13205;DHT22;6667;52.634;9.226;2023-06-04T11:24:04;31.90;99.90
13205;DHT22;6667;52.634;9.226;2023-06-04T11:26:33;31.40;99.90
13205;DHT22;6667;52.634;9.226;2023-06-04T11:29:02;31.50;99.90
13205;DHT22;6667;52.634;9.226;2023-06-04T11:31:41;32.00;99.90
13205;DHT22;6667;52.634;9.226;2023-06-04T11:34:09;30.80;99.90
13205;DHT22;6667;52.634;9.226;2023-06-04T11:36:39;30.90;99.90
13205;DHT22;6667;52.634;9.226;2023-06-04T11:39:07;30.80;99.90
13205;DHT22;6667;52.634;9.226;2023-06-04T11:41:36;30.10;99.90
13205;DHT22;6667;52.634;9.226;2023-06-04T11:44:05;30.70;99.90
13205;DHT22;6667;52.634;9.226;2023-06-04T11:46:35;30.20;99.90
13205;DHT22;6667;52.634;9.226;2023-06-04T11:49:03;30.40;99.90
13205;DHT22;6667;52.634;9.226;2023-06-04T11:51:30;30.60;99.90
13205;DHT22;6667;52.634;9.226;2023-06-04T11:53:59;31.00;99.90
13205;DHT22;6667;52.634;9.226;2023-06-04T11:56:27;30.60;99.90
13205;DHT22;6667;52.634;9.226;2023-06-04T11:58:56;30.40;99.90
13205;DHT22;6667;52.634;9.226;2023-06-04T12:01:24;30.20;99.90
13205;DHT22;6667;52.634;9.226;2023-06-04T12:03:54;29.90;99.90
13205;DHT22;6667;52.634;9.226;2023-06-04T12:06:22;29.90;99.90
13205;DHT22;6667;52.634;9.226;2023-06-04T12:08:50;30.10;99.90
13205;DHT22;6667;52.634;9.226;2023-06-04T12:11:29;30.80;99.90
13205;DHT22;6667;52.634;9.226;2023-06-04T12:13:59;30.90;99.90
13205;DHT22;6667;52.634;9.226;2023-06-04T12:16:27;30.40;99.90
13205;DHT22;6667;52.634;9.226;2023-06-04T12:19:07;30.70;99.90
13205;DHT22;6667;52.634;9.226;2023-06-04T12:21:35;29.80;99.90
13205;DHT22;6667;52.634;9.226;2023-06-04T12:24:07;30.20;99.90
13205;DHT22;6667;52.634;9.226;2023-06-04T12:26:34;30.10;99.90
13205;DHT22;6667;52.634;9.226;2023-06-04T12:29:11;29.70;99.90
13205;DHT22;6667;52.634;9.226;2023-06-04T12:31:39;29.60;99.90
13205;DHT22;6667;52.634;9.226;2023-06-04T12:34:06;29.80;99.90
13205;DHT22;6667;52.634;9.226;2023-06-04T12:36:32;29.20;99.90
13205;DHT22;6667;52.634;9.226;2023-06-04T12:39:01;29.80;99.90
13205;DHT22;6667;52.634;9.226;2023-06-04T12:41:29;29.50;99.90
13205;DHT22;6667;52.634;9.226;2023-06-04T12:44:00;29.60;99.90
13205;DHT22;6667;52.634;9.226;2023-06-04T12:46:28;29.90;99.90
13205;DHT22;6667;52.634;9.226;2023-06-04T12:48:56;30.10;99.90
13205;DHT22;6667;52.634;9.226;2023-06-04T12:51:23;29.70;99.90
13205;DHT22;6667;52.634;9.226;2023-06-04T12:53:50;29.50;99.90
13205;DHT22;6667;52.634;9.226;2023-06-04T12:56:18;29.80;99.90
13205;DHT22;6667;52.634;9.226;2023-06-04T12:58:46;30.00;99.90
13205;DHT22;6667;52.634;9.226;2023-06-04T13:01:14;30.10;99.90
13205;DHT22;6667;52.634;9.226;2023-06-04T13:03:43;29.90;99.90
13205;DHT22;6667;52.634;9.226;2023-06-04T13:06:10;30.40;99.90
13205;DHT22;6667;52.634;9.226;2023-06-04T13:08:37;30.30;99.90
13205;DHT22;6667;52.634;9.226;2023-06-04T13:11:04;30.10;99.90
13205;DHT22;6667;52.634;9.226;2023-06-04T13:13:32;29.90;99.90
13205;DHT22;6667;52.634;9.226;2023-06-04T13:15:59;29.40;99.90
13205;DHT22;6667;52.634;9.226;2023-06-04T13:18:26;29.30;99.90
13205;DHT22;6667;52.634;9.226;2023-06-04T13:20:55;29.00;99.90
13205;DHT22;6667;52.634;9.226;2023-06-04T13:23:23;28.90;99.90
13205;DHT22;6667;52.634;9.226;2023-06-04T13:25:50;29.50;99.90
13205;DHT22;6667;52.634;9.226;2023-06-04T13:28:18;30.00;99.90
13205;DHT22;6667;52.634;9.226;2023-06-04T13:30:46;29.80;99.90
13205;DHT22;6667;52.634;9.226;2023-06-04T13:33:14;29.80;99.90
13205;DHT22;6667;52.634;9.226;2023-06-04T13:35:42;30.30;99.90
13205;DHT22;6667;52.634;9.226;2023-06-04T13:38:11;29.80;99.90
13205;DHT22;6667;52.634;9.226;2023-06-04T13:40:39;29.60;99.90
13205;DHT22;6667;52.634;9.226;2023-06-04T13:43:07;29.90;99.90
13205;DHT22;6667;52.634;9.226;2023-06-04T13:45:34;29.80;99.90
13205;DHT22;6667;52.634;9.226;2023-06-04T13:48:02;29.80;99.90
13205;DHT22;6667;52.634;9.226;2023-06-04T13:50:33;29.60;99.90
13205;DHT22;6667;52.634;9.226;2023-06-04T13:53:01;28.40;99.90
13205;DHT22;6667;52.634;9.226;2023-06-04T13:55:30;28.00;99.90
13205;DHT22;6667;52.634;9.226;2023-06-04T13:57:58;27.80;99.90
13205;DHT22;6667;52.634;9.226;2023-06-04T14:00:26;27.70;99.90
13205;DHT22;6667;52.634;9.226;2023-06-04T14:02:55;27.90;99.90
13205;DHT22;6667;52.634;9.226;2023-06-04T14:05:25;28.10;99.90
13205;DHT22;6667;52.634;9.226;2023-06-04T14:07:53;27.70;99.90
13205;DHT22;6667;52.634;9.226;2023-06-04T14:10:22;27.40;99.90
13205;DHT22;6667;52.634;9.226;2023-06-04T14:12:54;27.00;99.90
13205;DHT22;6667;52.634;9.226;2023-06-04T14:15:22;27.50;99.90
13205;DHT22;6667;52.634;9.226;2023-06-04T14:17:49;27.60;99.90
13205;DHT22;6667;52.634;9.226;2023-06-04T14:20:19;28.00;99.90
13205;DHT22;6667;52.634;9.226;2023-06-04T14:22:47;27.80;99.90
13205;DHT22;6667;52.634;9.226;2023-06-04T14:25:15;27.20;99.90
13205;DHT22;6667;52.634;9.226;2023-06-04T14:27:42;27.00;99.90
13205;DHT22;6667;52.634;9.226;2023-06-04T14:30:12;27.50;99.90
13205;DHT22;6667;52.634;9.226;2023-06-04T14:32:39;27.00;99.90
13205;DHT22;6667;52.634;9.226;2023-06-04T14:35:11;27.30;99.90
13205;DHT22;6667;52.634;9.226;2023-06-04T14:37:39;27.20;99.90
13205;DHT22;6667;52.634;9.226;2023-06-04T14:40:08;27.40;99.90
13205;DHT22;6667;52.634;9.226;2023-06-04T14:42:38;27.30;99.90
13205;DHT22;6667;52.634;9.226;2023-06-04T14:45:06;27.20;99.90
13205;DHT22;6667;52.634;9.226;2023-06-04T14:47:37;26.60;99.90
13205;DHT22;6667;52.634;9.226;2023-06-04T14:50:08;26.60;99.90
13205;DHT22;6667;52.634;9.226;2023-06-04T14:52:38;26.40;99.90
13205;DHT22;6667;52.634;9.226;2023-06-04T14:55:08;26.20;99.90
13205;DHT22;6667;52.634;9.226;2023-06-04T14:57:38;26.00;99.90
13205;DHT22;6667;52.634;9.226;2023-06-04T15:00:08;26.10;99.90
13205;DHT22;6667;52.634;9.226;2023-06-04T15:02:39;26.40;99.90
13205;DHT22;6667;52.634;9.226;2023-06-04T15:05:08;26.20;99.90
13205;DHT22;6667;52.634;9.226;2023-06-04T15:07:39;25.80;99.90
13205;DHT22;6667;52.634;9.226;2023-06-04T15:10:21;25.40;99.90
13205;DHT22;6667;52.634;9.226;2023-06-04T15:12:50;25.60;99.90
13205;DHT22;6667;52.634;9.226;2023-06-04T15:15:20;25.50;99.90
13205;DHT22;6667;52.634;9.226;2023-06-04T15:17:50;25.50;99.90
13205;DHT22;6667;52.634;9.226;2023-06-04T15:20:18;25.30;99.90
13205;DHT22;6667;52.634;9.226;2023-06-04T15:22:46;25.40;99.90
13205;DHT22;6667;52.634;9.226;2023-06-04T15:25:15;25.10;99.90
13205;DHT22;6667;52.634;9.226;2023-06-04T15:27:46;25.10;99.90
13205;DHT22;6667;52.634;9.226;2023-06-04T15:30:15;25.10;99.90
13205;DHT22;6667;52.634;9.226;2023-06-04T15:32:43;24.80;99.90
13205;DHT22;6667;52.634;9.226;2023-06-04T15:35:15;24.80;99.90
13205;DHT22;6667;52.634;9.226;2023-06-04T15:37:44;25.00;99.90
13205;DHT22;6667;52.634;9.226;2023-06-04T15:40:14;25.00;99.90
13205;DHT22;6667;52.634;9.226;2023-06-04T15:42:48;24.80;99.90
13205;DHT22;6667;52.634;9.226;2023-06-04T15:45:17;24.40;99.90
13205;DHT22;6667;52.634;9.226;2023-06-04T15:47:50;24.50;99.90
13205;DHT22;6667;52.634;9.226;2023-06-04T15:50:18;24.40;99.90
13205;DHT22;6667;52.634;9.226;2023-06-04T15:52:45;24.20;99.90
13205;DHT22;6667;52.634;9.226;2023-06-04T15:55:12;24.20;99.90
13205;DHT22;6667;52.634;9.226;2023-06-04T15:57:42;24.20;99.90
13205;DHT22;6667;52.634;9.226;2023-06-04T16:00:10;24.30;99.90
13205;DHT22;6667;52.634;9.226;2023-06-04T16:02:38;24.10;99.90
13205;DHT22;6667;52.634;9.226;2023-06-04T16:05:07;24.00;99.90
13205;DHT22;6667;52.634;9.226;2023-06-04T16:07:43;24.00;99.90
13205;DHT22;6667;52.634;9.226;2023-06-04T16:10:10;24.00;99.90
13205;DHT22;6667;52.634;9.226;2023-06-04T16:12:40;23.80;99.90
13205;DHT22;6667;52.634;9.226;2023-06-04T16:15:08;23.80;99.90
13205;DHT22;6667;52.634;9.226;2023-06-04T16:17:38;23.60;99.90
13205;DHT22;6667;52.634;9.226;2023-06-04T16:20:08;23.40;99.90
13205;DHT22;6667;52.634;9.226;2023-06-04T16:22:37;23.20;99.90